sensor_id;sensor_type;location;lat;lon;timestamp;pressure;altitude;pressure_sealevel;temperature;humidity
72925;BME280;61070;50.794;7.054;2023-02-17T00:01:40;101415.94;;;10.17;98.39
72925;BME280;61070;50.794;7.054;2023-02-17T00:04:06;101415.06;;;10.09;98.79
72925;BME280;61070;50.794;7.054;2023-02-17T00:06:31;101415.94;;;10.14;98.53
72925;BME280;61070;50.794;7.054;2023-02-17T00:08:57;101398.28;;;10.16;98.57
72925;BME280;61070;50.794;7.054;2023-02-17T00:11:23;101399.22;;;10.35;97.12
72925;BME280;61070;50.794;7.054;2023-02-17T00:13:50;101390.38;;;10.29;97.76
72925;BME280;61070;50.794;7.054;2023-02-17T00:16:18;101390.41;;;10.32;97.49
72925;BME280;61070;50.794;7.054;2023-02-17T00:18:45;101395.69;;;10.35;97.64
72925;BME280;61070;50.794;7.054;2023-02-17T00:21:16;101382.44;;;10.36;97.43
72925;BME280;61070;50.794;7.054;2023-02-17T00:23:42;101392.16;;;10.45;96.91
72925;BME280;61070;50.794;7.054;2023-02-17T00:26:08;101384.19;;;10.30;97.76
72925;BME280;61070;50.794;7.054;2023-02-17T00:28:33;101378.94;;;10.33;97.59
72925;BME280;61070;50.794;7.054;2023-02-17T00:30:59;101379.78;;;10.39;97.46
72925;BME280;61070;50.794;7.054;2023-02-17T00:33:24;101380.69;;;10.46;96.85
72925;BME280;61070;50.794;7.054;2023-02-17T00:35:49;101370.97;;;10.43;96.86
72925;BME280;61070;50.794;7.054;2023-02-17T00:38:15;101371.84;;;10.47;96.72
72925;BME280;61070;50.794;7.054;2023-02-17T00:40:42;101370.09;;;10.43;97.07
72925;BME280;61070;50.794;7.054;2023-02-17T00:43:07;101382.44;;;10.39;97.13
72925;BME280;61070;50.794;7.054;2023-02-17T00:45:33;101369.19;;;10.38;97.29
72925;BME280;61070;50.794;7.054;2023-02-17T00:47:58;101378.91;;;10.46;97.22
72925;BME280;61070;50.794;7.054;2023-02-17T00:50:23;101370.97;;;10.42;97.05
72925;BME280;61070;50.794;7.054;2023-02-17T00:52:48;101378.03;;;10.40;97.54
72925;BME280;61070;50.794;7.054;2023-02-17T00:55:14;101375.41;;;10.31;97.79
72925;BME280;61070;50.794;7.054;2023-02-17T00:57:39;101381.56;;;10.31;97.85
72925;BME280;61070;50.794;7.054;2023-02-17T01:00:05;101375.38;;;10.22;98.45
72925;BME280;61070;50.794;7.054;2023-02-17T01:02:33;101378.84;;;10.19;98.86
72925;BME280;61070;50.794;7.054;2023-02-17T01:04:58;101373.56;;;10.14;98.94
72925;BME280;61070;50.794;7.054;2023-02-17T01:07:23;101370.94;;;10.16;99.15
72925;BME280;61070;50.794;7.054;2023-02-17T01:09:49;101363.88;;;10.16;98.79
72925;BME280;61070;50.794;7.054;2023-02-17T01:12:14;101369.16;;;10.10;99.60
72925;BME280;61070;50.794;7.054;2023-02-17T01:14:39;101378.00;;;10.11;99.25
72925;BME280;61070;50.794;7.054;2023-02-17T01:17:05;101372.69;;;10.02;99.99
72925;BME280;61070;50.794;7.054;2023-02-17T01:19:30;101368.28;;;10.01;100.00
72925;BME280;61070;50.794;7.054;2023-02-17T01:21:56;101358.56;;;10.01;100.00
72925;BME280;61070;50.794;7.054;2023-02-17T01:24:21;101358.56;;;10.03;100.00
72925;BME280;61070;50.794;7.054;2023-02-17T01:26:46;101357.69;;;10.05;100.00
72925;BME280;61070;50.794;7.054;2023-02-17T01:29:12;101349.75;;;10.05;99.85
72925;BME280;61070;50.794;7.054;2023-02-17T01:31:38;101343.56;;;10.06;100.00
72925;BME280;61070;50.794;7.054;2023-02-17T01:34:04;101332.97;;;10.05;100.00
72925;BME280;61070;50.794;7.054;2023-02-17T01:36:30;101337.41;;;10.10;100.00
72925;BME280;61070;50.794;7.054;2023-02-17T01:38:55;101324.16;;;10.10;100.00
72925;BME280;61070;50.794;7.054;2023-02-17T01:41:23;101333.00;;;10.09;100.00
72925;BME280;61070;50.794;7.054;2023-02-17T01:44:16;101327.66;;;10.08;99.84
72925;BME280;61070;50.794;7.054;2023-02-17T01:46:45;101324.16;;;10.07;100.00
72925;BME280;61070;50.794;7.054;2023-02-17T01:49:22;101319.75;;;10.06;100.00
72925;BME280;61070;50.794;7.054;2023-02-17T01:51:55;101312.69;;;10.10;100.00
72925;BME280;61070;50.794;7.054;2023-02-17T01:54:26;101311.81;;;10.14;99.88
72925;BME280;61070;50.794;7.054;2023-02-17T01:56:56;101316.22;;;10.10;100.00
72925;BME280;61070;50.794;7.054;2023-02-17T01:59:23;101313.56;;;10.04;100.00
72925;BME280;61070;50.794;7.054;2023-02-17T02:01:51;101315.31;;;10.07;100.00
72925;BME280;61070;50.794;7.054;2023-02-17T02:04:20;101303.88;;;9.99;100.00
72925;BME280;61070;50.794;7.054;2023-02-17T02:06:46;101309.16;;;9.99;100.00
72925;BME280;61070;50.794;7.054;2023-02-17T02:09:20;101306.50;;;9.94;100.00
72925;BME280;61070;50.794;7.054;2023-02-17T02:11:48;101304.75;;;9.98;100.00
72925;BME280;61070;50.794;7.054;2023-02-17T02:14:15;101302.97;;;10.03;100.00
72925;BME280;61070;50.794;7.054;2023-02-17T02:35:53;101295.91;;;9.96;100.00
72925;BME280;61070;50.794;7.054;2023-02-17T02:38:28;101304.75;;;9.93;100.00
72925;BME280;61070;50.794;7.054;2023-02-17T02:41:12;101297.66;;;10.18;99.35
72925;BME280;61070;50.794;7.054;2023-02-17T02:43:39;101297.69;;;10.06;99.97
72925;BME280;61070;50.794;7.054;2023-02-17T02:46:05;101296.81;;;9.98;100.00
72925;BME280;61070;50.794;7.054;2023-02-17T02:48:30;101295.91;;;9.96;100.00
72925;BME280;61070;50.794;7.054;2023-02-17T02:51:26;101306.50;;;9.92;100.00
72925;BME280;61070;50.794;7.054;2023-02-17T02:59:54;101287.09;;;10.19;99.59
72925;BME280;61070;50.794;7.054;2023-02-17T03:02:31;101282.66;;;10.41;98.02
72925;BME280;61070;50.794;7.054;2023-02-17T03:08:32;101263.25;;;10.47;97.09
72925;BME280;61070;50.794;7.054;2023-02-17T03:11:00;101272.97;;;10.45;97.25
72925;BME280;61070;50.794;7.054;2023-02-17T03:13:25;101271.22;;;10.45;96.92
72925;BME280;61070;50.794;7.054;2023-02-17T03:15:51;101262.31;;;10.63;96.47
72925;BME280;61070;50.794;7.054;2023-02-17T03:18:16;101256.16;;;10.52;96.32
72925;BME280;61070;50.794;7.054;2023-02-17T03:20:46;101251.78;;;10.46;96.43
72925;BME280;61070;50.794;7.054;2023-02-17T03:23:13;101261.50;;;10.37;97.16
72925;BME280;61070;50.794;7.054;2023-02-17T03:25:39;101255.34;;;10.33;97.16
72925;BME280;61070;50.794;7.054;2023-02-17T03:28:04;101248.25;;;10.29;97.28
72925;BME280;61070;50.794;7.054;2023-02-17T03:30:29;101256.22;;;10.32;97.44
72925;BME280;61070;50.794;7.054;2023-02-17T03:32:55;101252.66;;;10.45;96.31
72925;BME280;61070;50.794;7.054;2023-02-17T03:35:20;101256.19;;;10.49;96.32
72925;BME280;61070;50.794;7.054;2023-02-17T03:37:45;101259.69;;;10.56;95.92
72925;BME280;61070;50.794;7.054;2023-02-17T03:40:11;101256.13;;;10.63;94.91
72925;BME280;61070;50.794;7.054;2023-02-17T03:42:36;101256.19;;;10.54;95.63
72925;BME280;61070;50.794;7.054;2023-02-17T03:45:02;101245.59;;;10.38;96.54
72925;BME280;61070;50.794;7.054;2023-02-17T03:47:27;101242.06;;;10.44;96.48
72925;BME280;61070;50.794;7.054;2023-02-17T03:49:53;101234.13;;;10.47;95.87
72925;BME280;61070;50.794;7.054;2023-02-17T03:52:18;101244.72;;;10.39;96.37
72925;BME280;61070;50.794;7.054;2023-02-17T03:54:43;101255.34;;;10.42;96.16
72925;BME280;61070;50.794;7.054;2023-02-17T03:57:09;101251.75;;;10.48;96.22
72925;BME280;61070;50.794;7.054;2023-02-17T03:59:35;101256.19;;;10.40;96.29
72925;BME280;61070;50.794;7.054;2023-02-17T04:02:00;101249.13;;;10.37;96.23
72925;BME280;61070;50.794;7.054;2023-02-17T04:04:26;101257.06;;;10.46;95.45
72925;BME280;61070;50.794;7.054;2023-02-17T04:06:51;101254.41;;;10.48;95.53
72925;BME280;61070;50.794;7.054;2023-02-17T04:09:16;101258.84;;;10.44;95.29
72925;BME280;61070;50.794;7.054;2023-02-17T04:11:42;101249.16;;;10.36;96.17
72925;BME280;61070;50.794;7.054;2023-02-17T04:14:07;101252.69;;;10.27;96.55
72925;BME280;61070;50.794;7.054;2023-02-17T04:16:32;101256.22;;;10.25;96.93
72925;BME280;61070;50.794;7.054;2023-02-17T04:18:58;101254.47;;;10.24;96.39
72925;BME280;61070;50.794;7.054;2023-02-17T04:21:23;101265.94;;;10.32;96.04
72925;BME280;61070;50.794;7.054;2023-02-17T04:23:48;101261.53;;;10.22;96.75
72925;BME280;61070;50.794;7.054;2023-02-17T04:26:13;101259.72;;;10.19;96.53
72925;BME280;61070;50.794;7.054;2023-02-17T04:28:40;101261.50;;;10.20;96.99
72925;BME280;61070;50.794;7.054;2023-02-17T04:31:06;101260.63;;;10.27;96.26
72925;BME280;61070;50.794;7.054;2023-02-17T04:33:31;101263.31;;;10.23;96.34
72925;BME280;61070;50.794;7.054;2023-02-17T04:35:57;101266.81;;;10.20;96.62
72925;BME280;61070;50.794;7.054;2023-02-17T04:38:27;101273.00;;;10.25;96.65
72925;BME280;61070;50.794;7.054;2023-02-17T04:40:54;101250.91;;;10.15;96.34
72925;BME280;61070;50.794;7.054;2023-02-17T04:43:20;101256.22;;;10.12;96.69
72925;BME280;61070;50.794;7.054;2023-02-17T04:45:45;101250.94;;;10.11;97.04
72925;BME280;61070;50.794;7.054;2023-02-17T04:48:10;101249.16;;;10.14;95.94
72925;BME280;61070;50.794;7.054;2023-02-17T04:50:36;101248.28;;;10.11;96.46
72925;BME280;61070;50.794;7.054;2023-02-17T04:53:01;101265.03;;;10.11;96.12
72925;BME280;61070;50.794;7.054;2023-02-17T04:55:26;101258.00;;;10.12;96.09
72925;BME280;61070;50.794;7.054;2023-02-17T04:57:53;101254.47;;;10.10;96.47
72925;BME280;61070;50.794;7.054;2023-02-17T05:00:19;101257.09;;;10.13;96.04
72925;BME280;61070;50.794;7.054;2023-02-17T05:02:44;101249.19;;;10.24;95.34
72925;BME280;61070;50.794;7.054;2023-02-17T05:05:10;101243.88;;;10.20;95.63
72925;BME280;61070;50.794;7.054;2023-02-17T05:07:39;101244.75;;;10.12;95.92
72925;BME280;61070;50.794;7.054;2023-02-17T05:10:04;101242.97;;;10.14;96.26
72925;BME280;61070;50.794;7.054;2023-02-17T05:12:30;101235.91;;;10.16;95.59
72925;BME280;61070;50.794;7.054;2023-02-17T05:14:55;101249.13;;;10.19;95.17
72925;BME280;61070;50.794;7.054;2023-02-17T05:17:20;101260.63;;;10.10;95.88
72925;BME280;61070;50.794;7.054;2023-02-17T05:19:46;101248.28;;;10.02;95.88
72925;BME280;61070;50.794;7.054;2023-02-17T05:22:11;101252.72;;;9.98;96.77
72925;BME280;61070;50.794;7.054;2023-02-17T05:24:36;101250.94;;;10.03;96.04
72925;BME280;61070;50.794;7.054;2023-02-17T05:27:02;101255.34;;;10.01;96.36
72925;BME280;61070;50.794;7.054;2023-02-17T05:29:27;101255.34;;;10.00;96.61
72925;BME280;61070;50.794;7.054;2023-02-17T05:31:52;101261.53;;;10.00;96.64
72925;BME280;61070;50.794;7.054;2023-02-17T05:34:18;101256.22;;;10.00;96.41
72925;BME280;61070;50.794;7.054;2023-02-17T05:36:43;101254.47;;;9.99;96.55
72925;BME280;61070;50.794;7.054;2023-02-17T05:39:08;101252.72;;;9.97;96.72
72925;BME280;61070;50.794;7.054;2023-02-17T05:41:33;101247.38;;;10.15;95.89
72925;BME280;61070;50.794;7.054;2023-02-17T05:43:59;101258.00;;;10.12;96.01
72925;BME280;61070;50.794;7.054;2023-02-17T05:46:24;101254.44;;;10.14;95.77
72925;BME280;61070;50.794;7.054;2023-02-17T05:48:49;101250.91;;;10.14;95.90
72925;BME280;61070;50.794;7.054;2023-02-17T05:51:15;101242.97;;;10.18;95.62
72925;BME280;61070;50.794;7.054;2023-02-17T05:53:43;101233.25;;;10.30;94.61
72925;BME280;61070;50.794;7.054;2023-02-17T05:56:09;101230.63;;;10.27;94.88
72925;BME280;61070;50.794;7.054;2023-02-17T05:58:34;101238.56;;;10.25;94.87
72925;BME280;61070;50.794;7.054;2023-02-17T06:00:59;101233.28;;;10.28;94.59
72925;BME280;61070;50.794;7.054;2023-02-17T06:03:25;101227.09;;;10.32;94.32
72925;BME280;61070;50.794;7.054;2023-02-17T06:05:50;101220.88;;;10.47;93.28
72925;BME280;61070;50.794;7.054;2023-02-17T06:08:15;101228.81;;;10.39;93.94
72925;BME280;61070;50.794;7.054;2023-02-17T06:10:41;101229.63;;;10.64;93.01
72925;BME280;61070;50.794;7.054;2023-02-17T06:13:06;101220.78;;;10.76;92.09
72925;BME280;61070;50.794;7.054;2023-02-17T06:15:32;101216.41;;;10.60;92.66
72925;BME280;61070;50.794;7.054;2023-02-17T06:17:58;101223.47;;;10.67;92.08
72925;BME280;61070;50.794;7.054;2023-02-17T06:20:23;101220.72;;;10.82;91.35
72925;BME280;61070;50.794;7.054;2023-02-17T06:22:49;101233.03;;;10.95;91.37
72925;BME280;61070;50.794;7.054;2023-02-17T06:25:14;101209.19;;;10.94;91.02
72925;BME280;61070;50.794;7.054;2023-02-17T06:27:40;101220.66;;;11.02;91.16
72925;BME280;61070;50.794;7.054;2023-02-17T06:30:07;101224.19;;;10.99;90.79
72925;BME280;61070;50.794;7.054;2023-02-17T06:32:33;101228.59;;;11.03;91.08
72925;BME280;61070;50.794;7.054;2023-02-17T06:34:58;101232.03;;;11.19;90.41
72925;BME280;61070;50.794;7.054;2023-02-17T06:37:24;101237.41;;;11.10;90.87
72925;BME280;61070;50.794;7.054;2023-02-17T06:39:49;101233.78;;;11.20;90.31
72925;BME280;61070;50.794;7.054;2023-02-17T06:42:14;101233.00;;;11.04;91.39
72925;BME280;61070;50.794;7.054;2023-02-17T06:44:40;101236.50;;;11.11;91.07
72925;BME280;61070;50.794;7.054;2023-02-17T06:47:05;101227.69;;;11.11;91.59
72925;BME280;61070;50.794;7.054;2023-02-17T06:49:30;101234.69;;;11.18;91.20
72925;BME280;61070;50.794;7.054;2023-02-17T06:51:56;101235.59;;;11.15;91.53
72925;BME280;61070;50.794;7.054;2023-02-17T06:54:21;101230.31;;;11.09;92.15
72925;BME280;61070;50.794;7.054;2023-02-17T06:56:46;101227.66;;;11.09;92.44
72925;BME280;61070;50.794;7.054;2023-02-17T06:59:11;101232.06;;;11.15;92.36
72925;BME280;61070;50.794;7.054;2023-02-17T07:01:37;101236.44;;;11.17;93.06
72925;BME280;61070;50.794;7.054;2023-02-17T07:04:03;101228.50;;;11.17;93.04
72925;BME280;61070;50.794;7.054;2023-02-17T07:06:28;101245.28;;;11.19;92.98
72925;BME280;61070;50.794;7.054;2023-02-17T07:08:54;101239.16;;;11.11;93.72
72925;BME280;61070;50.794;7.054;2023-02-17T07:11:20;101235.59;;;11.09;94.03
72925;BME280;61070;50.794;7.054;2023-02-17T07:13:45;101235.69;;;11.00;94.56
72925;BME280;61070;50.794;7.054;2023-02-17T07:16:12;101235.66;;;11.03;95.09
72925;BME280;61070;50.794;7.054;2023-02-17T07:18:38;101241.81;;;11.11;94.37
72925;BME280;61070;50.794;7.054;2023-02-17T07:21:05;101248.91;;;11.04;95.39
72925;BME280;61070;50.794;7.054;2023-02-17T07:23:31;101249.75;;;11.13;94.83
72925;BME280;61070;50.794;7.054;2023-02-17T07:26:07;101253.22;;;11.21;94.21
72925;BME280;61070;50.794;7.054;2023-02-17T07:28:33;101233.84;;;11.09;95.40
72925;BME280;61070;50.794;7.054;2023-02-17T07:31:10;101232.97;;;11.09;95.62
72925;BME280;61070;50.794;7.054;2023-02-17T07:33:36;101234.75;;;11.10;95.67
72925;BME280;61070;50.794;7.054;2023-02-17T07:36:09;101231.13;;;11.25;95.06
72925;BME280;61070;50.794;7.054;2023-02-17T07:38:36;101241.59;;;11.42;94.40
72925;BME280;61070;50.794;7.054;2023-02-17T07:43:34;101243.41;;;11.36;95.14
72925;BME280;61070;50.794;7.054;2023-02-17T07:45:59;101238.06;;;11.41;94.84
72925;BME280;61070;50.794;7.054;2023-02-17T07:48:24;101229.22;;;11.45;94.87
72925;BME280;61070;50.794;7.054;2023-02-17T07:50:50;101234.50;;;11.47;95.19
72925;BME280;61070;50.794;7.054;2023-02-17T07:53:15;101228.31;;;11.48;95.60
72925;BME280;61070;50.794;7.054;2023-02-17T07:55:42;101232.78;;;11.44;95.38
72925;BME280;61070;50.794;7.054;2023-02-17T07:58:07;101236.28;;;11.48;95.54
72925;BME280;61070;50.794;7.054;2023-02-17T08:00:32;101240.59;;;11.61;95.13
72925;BME280;61070;50.794;7.054;2023-02-17T08:02:58;101231.81;;;11.56;95.09
72925;BME280;61070;50.794;7.054;2023-02-17T08:05:23;101230.03;;;11.56;95.46
72925;BME280;61070;50.794;7.054;2023-02-17T08:07:48;101236.94;;;11.80;94.19
72925;BME280;61070;50.794;7.054;2023-02-17T08:10:36;101232.56;;;11.70;94.83
72925;BME280;61070;50.794;7.054;2023-02-17T08:13:20;101237.81;;;11.76;95.09
72925;BME280;61070;50.794;7.054;2023-02-17T08:15:45;101227.22;;;11.81;94.79
72925;BME280;61070;50.794;7.054;2023-02-17T08:18:11;101234.19;;;11.92;94.25
72925;BME280;61070;50.794;7.054;2023-02-17T08:20:36;101226.13;;;11.99;94.26
72925;BME280;61070;50.794;7.054;2023-02-17T08:23:02;101235.00;;;12.01;94.01
72925;BME280;61070;50.794;7.054;2023-02-17T08:25:33;101239.38;;;12.05;94.38
72925;BME280;61070;50.794;7.054;2023-02-17T08:28:01;101235.94;;;11.93;95.14
72925;BME280;61070;50.794;7.054;2023-02-17T08:30:26;101234.97;;;12.02;95.19
72925;BME280;61070;50.794;7.054;2023-02-17T08:32:52;101235.91;;;11.97;95.31
72925;BME280;61070;50.794;7.054;2023-02-17T08:35:17;101252.47;;;12.23;94.53
72925;BME280;61070;50.794;7.054;2023-02-17T08:37:46;101248.03;;;12.27;94.70
72925;BME280;61070;50.794;7.054;2023-02-17T08:40:11;101253.41;;;12.19;95.34
72925;BME280;61070;50.794;7.054;2023-02-17T08:42:37;101253.28;;;12.31;94.90
72925;BME280;61070;50.794;7.054;2023-02-17T08:45:03;101256.66;;;12.48;94.42
72925;BME280;61070;50.794;7.054;2023-02-17T08:47:28;101240.66;;;12.51;94.34
72925;BME280;61070;50.794;7.054;2023-02-17T08:49:54;101259.22;;;12.54;93.91
72925;BME280;61070;50.794;7.054;2023-02-17T08:52:19;101246.75;;;12.61;93.64
72925;BME280;61070;50.794;7.054;2023-02-17T08:54:44;101251.09;;;12.67;93.38
72925;BME280;61070;50.794;7.054;2023-02-17T08:57:10;101249.28;;;12.72;93.30
72925;BME280;61070;50.794;7.054;2023-02-17T08:59:35;101254.63;;;12.72;93.18
72925;BME280;61070;50.794;7.054;2023-02-17T09:02:01;101261.69;;;12.73;92.89
72925;BME280;61070;50.794;7.054;2023-02-17T09:04:26;101258.91;;;12.83;92.31
72925;BME280;61070;50.794;7.054;2023-02-17T09:06:53;101254.50;;;12.81;92.13
72925;BME280;61070;50.794;7.054;2023-02-17T09:09:22;101249.94;;;12.91;91.69
72925;BME280;61070;50.794;7.054;2023-02-17T09:11:51;101233.09;;;12.93;91.53
72925;BME280;61070;50.794;7.054;2023-02-17T09:14:16;101246.34;;;12.95;91.34
72925;BME280;61070;50.794;7.054;2023-02-17T09:16:41;101240.97;;;12.99;91.03
72925;BME280;61070;50.794;7.054;2023-02-17T09:19:07;101240.03;;;13.03;90.89
72925;BME280;61070;50.794;7.054;2023-02-17T09:21:32;101239.13;;;13.06;91.05
72925;BME280;61070;50.794;7.054;2023-02-17T09:23:58;101239.03;;;13.10;90.88
72925;BME280;61070;50.794;7.054;2023-02-17T09:26:23;101244.03;;;13.38;89.23
72925;BME280;61070;50.794;7.054;2023-02-17T09:28:49;101240.31;;;13.48;88.25
72925;BME280;61070;50.794;7.054;2023-02-17T09:31:20;101236.91;;;13.38;88.83
72925;BME280;61070;50.794;7.054;2023-02-17T09:33:47;101241.22;;;13.46;88.30
72925;BME280;61070;50.794;7.054;2023-02-17T09:36:14;101243.00;;;13.45;88.73
72925;BME280;61070;50.794;7.054;2023-02-17T09:38:41;101245.44;;;13.62;87.70
72925;BME280;61070;50.794;7.054;2023-02-17T09:41:33;101241.69;;;13.74;86.97
72925;BME280;61070;50.794;7.054;2023-02-17T09:44:04;101242.38;;;13.86;86.37
72925;BME280;61070;50.794;7.054;2023-02-17T09:46:40;101234.38;;;13.86;86.06
72925;BME280;61070;50.794;7.054;2023-02-17T09:49:11;101235.00;;;14.01;85.50
72925;BME280;61070;50.794;7.054;2023-02-17T09:51:43;101237.44;;;14.13;84.85
72925;BME280;61070;50.794;7.054;2023-02-17T09:56:41;101240.69;;;14.32;83.80
72925;BME280;61070;50.794;7.054;2023-02-17T09:59:39;101233.38;;;14.41;83.26
72925;BME280;61070;50.794;7.054;2023-02-17T10:02:11;101246.59;;;14.49;82.79
72925;BME280;61070;50.794;7.054;2023-02-17T10:04:40;101244.47;;;14.66;81.85
72925;BME280;61070;50.794;7.054;2023-02-17T10:07:08;101243.78;;;14.56;82.37
72925;BME280;61070;50.794;7.054;2023-02-17T10:09:42;101243.78;;;14.56;81.95
72925;BME280;61070;50.794;7.054;2023-02-17T10:12:19;101245.53;;;14.57;81.71
72925;BME280;61070;50.794;7.054;2023-02-17T10:14:53;101240.91;;;14.67;81.17
72925;BME280;61070;50.794;7.054;2023-02-17T10:20:08;101257.38;;;14.88;80.81
72925;BME280;61070;50.794;7.054;2023-02-17T10:22:35;101242.97;;;14.96;80.36
72925;BME280;61070;50.794;7.054;2023-02-17T10:25:05;101237.50;;;15.02;79.98
72925;BME280;61070;50.794;7.054;2023-02-17T10:27:41;101248.88;;;15.10;79.38
72925;BME280;61070;50.794;7.054;2023-02-17T10:30:29;101245.00;;;15.25;79.02
72925;BME280;61070;50.794;7.054;2023-02-17T10:38:58;101246.63;;;15.32;78.33
72925;BME280;61070;50.794;7.054;2023-02-17T10:41:33;101238.78;;;15.25;78.28
72925;BME280;61070;50.794;7.054;2023-02-17T10:44:25;101252.75;;;15.36;78.46
72925;BME280;61070;50.794;7.054;2023-02-17T10:46:54;101248.47;;;15.30;78.38
72925;BME280;61070;50.794;7.054;2023-02-17T10:49:50;101242.78;;;15.44;78.11
72925;BME280;61070;50.794;7.054;2023-02-17T10:52:32;101246.31;;;15.46;78.13
72925;BME280;61070;50.794;7.054;2023-02-17T10:57:52;101235.75;;;15.79;76.43
72925;BME280;61070;50.794;7.054;2023-02-17T11:00:18;101228.47;;;15.85;75.94
72925;BME280;61070;50.794;7.054;2023-02-17T11:02:46;101220.44;;;15.87;75.80
72925;BME280;61070;50.794;7.054;2023-02-17T11:05:28;101227.91;;;16.07;75.57
72925;BME280;61070;50.794;7.054;2023-02-17T11:08:28;101214.78;;;15.99;74.59
72925;BME280;61070;50.794;7.054;2023-02-17T11:13:45;101225.41;;;16.00;75.10
72925;BME280;61070;50.794;7.054;2023-02-17T11:16:25;101227.63;;;16.17;74.72
72925;BME280;61070;50.794;7.054;2023-02-17T11:18:51;101221.59;;;16.11;74.51
72925;BME280;61070;50.794;7.054;2023-02-17T11:21:17;101215.41;;;16.09;74.72
72925;BME280;61070;50.794;7.054;2023-02-17T11:23:54;101217.94;;;16.13;74.29
72925;BME280;61070;50.794;7.054;2023-02-17T11:26:26;101210.47;;;16.26;74.27
72925;BME280;61070;50.794;7.054;2023-02-17T11:28:51;101207.88;;;16.23;74.20
72925;BME280;61070;50.794;7.054;2023-02-17T11:31:29;101202.75;;;16.15;73.95
72925;BME280;61070;50.794;7.054;2023-02-17T11:33:54;101192.72;;;16.23;74.28
72925;BME280;61070;50.794;7.054;2023-02-17T11:36:25;101205.00;;;16.30;74.19
72925;BME280;61070;50.794;7.054;2023-02-17T11:38:50;101206.00;;;16.26;74.15
72925;BME280;61070;50.794;7.054;2023-02-17T11:41:16;101196.56;;;16.13;74.97
72925;BME280;61070;50.794;7.054;2023-02-17T11:44:11;101204.72;;;16.07;74.90
72925;BME280;61070;50.794;7.054;2023-02-17T11:46:46;101196.53;;;16.15;75.22
72925;BME280;61070;50.794;7.054;2023-02-17T11:49:32;101189.28;;;16.20;74.96
72925;BME280;61070;50.794;7.054;2023-02-17T11:54:42;101198.28;;;16.16;74.98
72925;BME280;61070;50.794;7.054;2023-02-17T12:12:06;101149.03;;;16.55;72.91
72925;BME280;61070;50.794;7.054;2023-02-17T12:17:22;101166.91;;;16.53;72.62
72925;BME280;61070;50.794;7.054;2023-02-17T12:25:36;101146.56;;;16.48;70.88
72925;BME280;61070;50.794;7.054;2023-02-17T12:33:33;101160.34;;;16.34;70.64
72925;BME280;61070;50.794;7.054;2023-02-17T12:36:07;101144.97;;;16.41;70.57
72925;BME280;61070;50.794;7.054;2023-02-17T12:38:38;101167.19;;;16.44;71.17
72925;BME280;61070;50.794;7.054;2023-02-17T12:41:10;101145.03;;;16.39;70.43
72925;BME280;61070;50.794;7.054;2023-02-17T12:43:44;101154.91;;;16.37;70.42
72925;BME280;61070;50.794;7.054;2023-02-17T12:46:14;101148.38;;;16.47;70.13
72925;BME280;61070;50.794;7.054;2023-02-17T12:49:02;101142.09;;;16.48;69.61
72925;BME280;61070;50.794;7.054;2023-02-17T12:51:32;101149.00;;;16.57;69.66
72925;BME280;61070;50.794;7.054;2023-02-17T12:54:06;101132.00;;;16.58;69.00
72925;BME280;61070;50.794;7.054;2023-02-17T12:56:45;101135.47;;;16.62;69.22
72925;BME280;61070;50.794;7.054;2023-02-17T12:59:17;101129.06;;;16.67;69.41
72925;BME280;61070;50.794;7.054;2023-02-17T13:01:58;101150.41;;;16.70;69.40
72925;BME280;61070;50.794;7.054;2023-02-17T13:04:25;101131.16;;;16.87;68.70
72925;BME280;61070;50.794;7.054;2023-02-17T13:07:02;101133.88;;;16.85;67.27
72925;BME280;61070;50.794;7.054;2023-02-17T13:09:34;101117.81;;;16.85;67.46
72925;BME280;61070;50.794;7.054;2023-02-17T13:12:17;101118.81;;;17.11;67.37
72925;BME280;61070;50.794;7.054;2023-02-17T13:14:55;101123.78;;;17.23;66.41
72925;BME280;61070;50.794;7.054;2023-02-17T13:17:38;101133.09;;;17.38;66.67
72925;BME280;61070;50.794;7.054;2023-02-17T13:22:41;101110.63;;;17.42;65.70
72925;BME280;61070;50.794;7.054;2023-02-17T13:25:12;101117.72;;;17.43;65.88
72925;BME280;61070;50.794;7.054;2023-02-17T13:27:39;101113.00;;;17.25;66.18
72925;BME280;61070;50.794;7.054;2023-02-17T13:30:05;101117.72;;;17.43;66.32
72925;BME280;61070;50.794;7.054;2023-02-17T13:32:36;101120.63;;;17.37;66.28
72925;BME280;61070;50.794;7.054;2023-02-17T13:37:42;101120.38;;;17.44;66.10
72925;BME280;61070;50.794;7.054;2023-02-17T13:42:42;101119.88;;;17.05;66.38
72925;BME280;61070;50.794;7.054;2023-02-17T13:45:32;101129.22;;;16.92;66.32
72925;BME280;61070;50.794;7.054;2023-02-17T13:47:59;101138.59;;;17.05;65.74
72925;BME280;61070;50.794;7.054;2023-02-17T13:50:26;101140.06;;;17.15;66.06
72925;BME280;61070;50.794;7.054;2023-02-17T13:52:53;101121.34;;;17.15;66.36
72925;BME280;61070;50.794;7.054;2023-02-17T13:55:19;101126.03;;;17.07;66.63
72925;BME280;61070;50.794;7.054;2023-02-17T13:57:44;101129.88;;;17.00;66.90
72925;BME280;61070;50.794;7.054;2023-02-17T14:00:29;101128.72;;;17.07;66.79
72925;BME280;61070;50.794;7.054;2023-02-17T14:02:57;101125.78;;;16.88;67.26
72925;BME280;61070;50.794;7.054;2023-02-17T14:08:03;101138.81;;;16.99;67.28
72925;BME280;61070;50.794;7.054;2023-02-17T14:10:30;101136.81;;;16.78;67.62
72925;BME280;61070;50.794;7.054;2023-02-17T14:12:56;101148.22;;;16.83;68.34
72925;BME280;61070;50.794;7.054;2023-02-17T14:15:26;101152.75;;;17.09;67.70
72925;BME280;61070;50.794;7.054;2023-02-17T14:17:53;101138.66;;;17.04;67.19
72925;BME280;61070;50.794;7.054;2023-02-17T14:20:31;101157.69;;;16.95;67.98
72925;BME280;61070;50.794;7.054;2023-02-17T14:23:08;101148.00;;;16.91;67.56
72925;BME280;61070;50.794;7.054;2023-02-17T14:25:38;101141.94;;;16.84;67.55
72925;BME280;61070;50.794;7.054;2023-02-17T14:28:04;101160.13;;;16.73;67.53